Time;durP1;ratioP1;P1;durP2;ratioP2;P2;SDS_P1;SDS_P2;PMS_P1;PMS_P2;Temp;Humidity;BMP_temperature;BMP_pressure;BME280_temperature;BME280_humidity;BME280_pressure;Samples;Min_cycle;Max_cycle;Signal;HPM_P1;HPM_P2
2021/12/22 00:00:19;;;;;;;34.53;30.98;;;-3.30;99.90;;;;;;5052887;28;20211;-72
2021/12/22 00:02:48;;;;;;;35.03;29.77;;;-3.30;99.90;;;;;;5052801;28;20203;-72
2021/12/22 00:05:17;;;;;;;34.92;30.35;;;-3.20;99.90;;;;;;5052858;28;20290;-72
2021/12/22 00:07:43;;;;;;;32.85;29.27;;;-3.20;99.90;;;;;;5052964;28;20222;-72
2021/12/22 00:10:10;;;;;;;34.45;29.95;;;-3.10;99.90;;;;;;5052830;28;20210;-72
2021/12/22 00:12:37;;;;;;;34.03;30.48;;;-3.10;99.90;;;;;;5052680;28;20217;-72
2021/12/22 00:15:05;;;;;;;32.85;29.38;;;-3.20;99.90;;;;;;5052481;28;20209;-73
2021/12/22 00:17:33;;;;;;;33.97;30.30;;;-3.20;99.90;;;;;;5052349;28;20258;-73
2021/12/22 00:20:00;;;;;;;32.13;27.95;;;-3.30;99.90;;;;;;5052564;28;20272;-73
2021/12/22 00:22:27;;;;;;;31.65;28.20;;;-3.30;99.90;;;;;;5052602;28;20219;-72
2021/12/22 00:24:54;;;;;;;34.58;29.73;;;-3.40;99.90;;;;;;5052380;28;20205;-74
2021/12/22 00:27:21;;;;;;;33.25;29.65;;;-3.40;99.90;;;;;;5052638;28;20595;-73
2021/12/22 00:29:49;;;;;;;37.45;31.23;;;-3.40;99.90;;;;;;5052357;28;20202;-73
2021/12/22 00:32:17;;;;;;;32.47;28.92;;;-3.40;99.90;;;;;;5052401;28;20241;-74
2021/12/22 00:34:48;;;;;;;34.33;30.80;;;-3.40;99.90;;;;;;5052260;28;20214;-73
2021/12/22 00:37:16;;;;;;;33.00;29.10;;;-3.40;99.90;;;;;;5052388;28;20248;-73
2021/12/22 00:39:44;;;;;;;34.88;31.17;;;-3.30;99.90;;;;;;5052136;28;20200;-74
2021/12/22 00:42:12;;;;;;;38.72;32.40;;;-3.20;99.90;;;;;;5052429;28;20551;-74
2021/12/22 00:44:39;;;;;;;36.83;30.05;;;-3.20;99.90;;;;;;5052025;28;20211;-73
2021/12/22 00:47:06;;;;;;;33.90;30.60;;;-3.10;99.90;;;;;;5051874;28;20224;-73
2021/12/22 00:49:33;;;;;;;38.15;30.55;;;-3.10;99.90;;;;;;5052108;28;20210;-73
2021/12/22 00:52:01;;;;;;;34.25;30.25;;;-3.10;99.90;;;;;;5051784;28;20209;-74
2021/12/22 00:54:28;;;;;;;34.08;30.50;;;-3.00;99.90;;;;;;5052022;28;20267;-73
2021/12/22 00:57:00;;;;;;;34.80;31.02;;;-3.00;99.90;;;;;;5052134;28;20206;-74
2021/12/22 00:59:27;;;;;;;34.53;30.92;;;-3.00;99.90;;;;;;5051712;28;20207;-73
2021/12/22 01:01:54;;;;;;;33.10;29.30;;;-3.10;99.90;;;;;;5051891;28;20208;-72
2021/12/22 01:04:21;;;;;;;33.03;29.73;;;-3.10;99.90;;;;;;5051811;28;20209;-72
2021/12/22 01:06:47;;;;;;;38.05;31.63;;;-3.00;99.90;;;;;;5051696;28;20467;-72
2021/12/22 01:09:15;;;;;;;33.87;30.03;;;-3.00;99.90;;;;;;5051539;28;20571;-72
2021/12/22 01:11:42;;;;;;;37.03;31.23;;;-3.00;99.90;;;;;;5051695;28;20515;-72
2021/12/22 01:14:09;;;;;;;37.50;31.60;;;-3.00;99.90;;;;;;5051644;28;20219;-73
2021/12/22 01:16:36;;;;;;;33.13;29.17;;;-3.00;99.90;;;;;;5051513;28;20202;-75
2021/12/22 01:19:09;;;;;;;32.35;29.05;;;-3.10;99.90;;;;;;5051095;28;20209;-73
2021/12/22 01:21:41;;;;;;;32.50;28.40;;;-3.10;99.90;;;;;;5051325;28;20203;-72
2021/12/22 01:24:15;;;;;;;31.30;28.00;;;-3.10;99.90;;;;;;5051229;28;20653;-72
2021/12/22 01:26:51;;;;;;;32.67;29.13;;;-3.10;99.90;;;;;;5051453;28;20229;-74
2021/12/22 01:29:17;;;;;;;32.83;27.85;;;-3.10;99.90;;;;;;5051327;28;20204;-73
2021/12/22 01:31:44;;;;;;;34.03;28.95;;;-3.20;99.90;;;;;;5051200;28;20625;-74
2021/12/22 01:34:11;;;;;;;36.08;31.27;;;-3.20;99.90;;;;;;5051132;28;20234;-74
2021/12/22 01:36:39;;;;;;;32.10;28.73;;;-3.20;99.90;;;;;;5051275;28;20260;-74
2021/12/22 01:39:06;;;;;;;36.27;30.00;;;-3.10;99.90;;;;;;5051254;28;20312;-73
2021/12/22 01:41:33;;;;;;;35.97;29.20;;;-3.20;99.90;;;;;;5051303;28;20455;-73
2021/12/22 01:44:01;;;;;;;32.08;28.77;;;-3.20;99.90;;;;;;5051264;28;20203;-74
2021/12/22 01:49:38;;;;;;;30.05;27.08;;;-3.20;99.90;;;;;;5050979;28;20283;-73
2021/12/22 01:52:07;;;;;;;31.63;28.58;;;-3.20;99.90;;;;;;5050736;28;20672;-74
2021/12/22 01:54:38;;;;;;;43.53;27.60;;;-3.20;99.90;;;;;;5050942;28;20744;-74
2021/12/22 01:57:09;;;;;;;30.65;27.50;;;-3.20;99.90;;;;;;5051247;28;20259;-72
2021/12/22 01:59:38;;;;;;;32.03;28.75;;;-3.20;99.90;;;;;;5050850;28;20214;-73
2021/12/22 02:02:08;;;;;;;30.33;27.00;;;-3.20;99.90;;;;;;5050899;28;20331;-73
2021/12/22 02:04:35;;;;;;;32.08;28.67;;;-3.30;99.90;;;;;;5050963;28;20738;-74
2021/12/22 02:07:01;;;;;;;36.00;28.30;;;-3.30;99.90;;;;;;5050950;28;20217;-74
2021/12/22 02:09:45;;;;;;;33.03;29.55;;;-3.30;99.90;;;;;;5050872;28;20201;-75
2021/12/22 02:12:13;;;;;;;39.28;30.70;;;-3.30;99.90;;;;;;5051027;28;20237;-73
2021/12/22 02:14:42;;;;;;;35.50;31.00;;;-3.30;99.90;;;;;;5050791;28;20261;-72
2021/12/22 02:17:11;;;;;;;34.43;28.77;;;-3.30;99.90;;;;;;5050679;28;20541;-73
2021/12/22 02:19:40;;;;;;;35.22;28.90;;;-3.30;99.90;;;;;;5050938;28;20453;-73
2021/12/22 02:22:10;;;;;;;32.87;29.47;;;-3.30;99.90;;;;;;5050695;28;20286;-73
2021/12/22 02:24:37;;;;;;;33.77;30.40;;;-3.30;99.90;;;;;;5050650;28;20817;-74
2021/12/22 02:27:08;;;;;;;35.30;31.65;;;-3.30;99.90;;;;;;5050702;28;20540;-73
2021/12/22 02:29:37;;;;;;;38.47;30.33;;;-3.30;99.90;;;;;;5050640;28;20729;-73
2021/12/22 02:32:14;;;;;;;35.75;31.90;;;-3.30;99.90;;;;;;5054201;28;20463;-74
2021/12/22 02:34:45;;;;;;;33.15;29.48;;;-3.30;99.90;;;;;;5054552;28;20314;-72
2021/12/22 02:37:16;;;;;;;33.20;30.00;;;-3.30;99.90;;;;;;5054503;28;20559;-72
2021/12/22 02:39:47;;;;;;;35.08;30.45;;;-3.40;99.90;;;;;;5054682;28;20293;-75
2021/12/22 02:42:18;;;;;;;33.53;30.10;;;-3.40;99.90;;;;;;5054690;28;20206;-74
2021/12/22 02:44:44;;;;;;;32.60;29.27;;;-3.40;99.90;;;;;;5054609;28;20281;-73
2021/12/22 02:47:17;;;;;;;32.92;29.50;;;-3.50;99.90;;;;;;5054209;28;20203;-74
2021/12/22 02:49:45;;;;;;;36.00;32.20;;;-3.50;99.90;;;;;;5054222;28;20216;-74
2021/12/22 02:52:11;;;;;;;39.90;31.70;;;-3.50;99.90;;;;;;5054299;28;20454;-73
2021/12/22 02:54:46;;;;;;;33.45;29.90;;;-3.50;99.90;;;;;;5054002;28;20229;-73
2021/12/22 02:57:23;;;;;;;34.63;30.65;;;-3.50;99.90;;;;;;5054101;28;20695;-73
2021/12/22 03:00:10;;;;;;;34.00;30.50;;;-3.50;99.90;;;;;;5054046;28;20733;-73
2021/12/22 03:02:44;;;;;;;36.97;33.03;;;-3.40;99.90;;;;;;5053909;28;20203;-72
2021/12/22 03:05:13;;;;;;;33.42;30.10;;;-3.40;99.90;;;;;;5054086;28;20204;-74
2021/12/22 03:07:39;;;;;;;37.10;33.33;;;-3.40;99.90;;;;;;5053998;28;20209;-74
2021/12/22 03:10:12;;;;;;;35.22;29.85;;;-3.40;99.90;;;;;;5054031;28;20289;-73
2021/12/22 03:12:40;;;;;;;32.67;29.27;;;-3.50;99.90;;;;;;5053774;28;20233;-73
2021/12/22 03:15:09;;;;;;;34.17;30.50;;;-3.50;99.90;;;;;;5053489;28;20402;-74
2021/12/22 03:17:37;;;;;;;35.20;31.60;;;-3.50;99.90;;;;;;5053931;28;20317;-74
2021/12/22 03:20:06;;;;;;;36.25;32.45;;;-3.50;99.90;;;;;;5053820;28;20202;-74
2021/12/22 03:22:34;;;;;;;35.22;31.25;;;-3.60;99.90;;;;;;5053626;28;20227;-73
2021/12/22 03:25:01;;;;;;;37.55;33.63;;;-3.60;99.90;;;;;;5053552;28;20212;-73
2021/12/22 03:27:28;;;;;;;36.70;30.50;;;-3.60;99.90;;;;;;5053378;28;20691;-72
2021/12/22 03:29:55;;;;;;;35.92;32.00;;;-3.70;99.90;;;;;;5053441;28;20210;-73
2021/12/22 03:32:22;;;;;;;33.90;30.45;;;-3.70;99.90;;;;;;5053553;28;20210;-73
2021/12/22 03:34:49;;;;;;;34.93;31.60;;;-3.70;99.90;;;;;;5053354;28;20253;-73
2021/12/22 03:37:15;;;;;;;36.22;31.40;;;-3.70;99.90;;;;;;5053394;28;20457;-73
2021/12/22 03:39:43;;;;;;;37.28;33.20;;;-3.70;99.90;;;;;;5053342;28;20209;-72
2021/12/22 03:42:11;;;;;;;34.45;30.08;;;-3.70;99.90;;;;;;5052986;28;20203;-72
2021/12/22 03:44:38;;;;;;;36.58;31.70;;;-3.80;99.90;;;;;;5053091;28;20656;-72
2021/12/22 03:47:05;;;;;;;40.35;32.42;;;-3.70;99.90;;;;;;5052988;28;20232;-72
2021/12/22 03:49:32;;;;;;;34.80;31.05;;;-3.80;99.90;;;;;;5053102;28;20214;-72
2021/12/22 03:51:59;;;;;;;34.72;30.27;;;-3.80;99.90;;;;;;5053305;28;20212;-72
2021/12/22 03:54:26;;;;;;;36.38;31.77;;;-3.80;99.90;;;;;;5053182;28;20713;-72
2021/12/22 03:56:54;;;;;;;35.30;31.65;;;-3.90;99.90;;;;;;5053278;28;20202;-72
2021/12/22 03:59:20;;;;;;;39.90;34.85;;;-3.90;99.90;;;;;;5067710;28;20202;-72
2021/12/22 04:01:47;;;;;;;35.92;31.20;;;-3.90;99.90;;;;;;5071632;28;20206;-74
2021/12/22 04:04:17;;;;;;;36.95;31.48;;;-3.90;99.90;;;;;;5072010;28;20201;-74
2021/12/22 04:06:46;;;;;;;35.65;31.83;;;-3.90;99.90;;;;;;5058213;28;20212;-74
2021/12/22 04:09:14;;;;;;;33.92;30.50;;;-3.90;99.90;;;;;;5052994;28;20202;-73
2021/12/22 04:11:41;;;;;;;35.78;32.00;;;-4.00;99.90;;;;;;5053118;28;20209;-73
2021/12/22 04:14:10;;;;;;;34.60;30.90;;;-4.00;99.90;;;;;;5052997;28;20218;-74
2021/12/22 04:16:37;;;;;;;39.10;32.40;;;-4.00;99.90;;;;;;5053068;28;20206;-73
2021/12/22 04:19:04;;;;;;;34.25;30.60;;;-3.90;99.90;;;;;;5052646;28;20730;-73
2021/12/22 04:21:31;;;;;;;37.20;31.23;;;-3.90;99.90;;;;;;5052408;28;20206;-73
2021/12/22 04:23:58;;;;;;;35.47;31.88;;;-3.90;99.90;;;;;;5052415;28;20215;-73
2021/12/22 04:26:27;;;;;;;33.58;30.05;;;-3.90;99.90;;;;;;5052522;28;20201;-74
2021/12/22 04:28:54;;;;;;;48.58;31.50;;;-3.90;99.90;;;;;;5052363;28;20203;-74
2021/12/22 04:31:22;;;;;;;34.03;29.88;;;-4.00;99.90;;;;;;5052299;28;20289;-73
2021/12/22 04:33:49;;;;;;;33.72;29.73;;;-4.00;99.90;;;;;;5052422;28;20311;-73
2021/12/22 04:36:15;;;;;;;32.92;29.15;;;-3.90;99.90;;;;;;5052191;28;20234;-73
2021/12/22 04:38:42;;;;;;;34.33;30.77;;;-4.00;99.90;;;;;;5052304;28;20206;-74
2021/12/22 04:41:09;;;;;;;35.15;31.40;;;-4.00;99.90;;;;;;5052292;28;20672;-73
2021/12/22 04:43:36;;;;;;;35.85;31.23;;;-4.00;99.90;;;;;;5052230;28;20259;-72
2021/12/22 04:46:03;;;;;;;39.65;30.30;;;-4.00;99.90;;;;;;5051977;28;20214;-73
2021/12/22 04:48:34;;;;;;;39.65;32.22;;;-4.10;99.90;;;;;;5051714;28;20241;-74
2021/12/22 04:51:01;;;;;;;35.95;29.25;;;-4.10;99.90;;;;;;5052172;28;20214;-74
2021/12/22 04:53:36;;;;;;;32.08;28.92;;;-4.10;99.90;;;;;;5051335;28;20224;-73
2021/12/22 04:56:03;;;;;;;31.05;27.73;;;-4.10;99.90;;;;;;5051800;28;20656;-74
2021/12/22 04:58:30;;;;;;;34.40;30.90;;;-4.10;99.90;;;;;;5051808;28;20205;-74
2021/12/22 05:00:56;;;;;;;36.88;29.35;;;-4.20;99.90;;;;;;5051641;28;20206;-72
2021/12/22 05:03:23;;;;;;;33.90;30.45;;;-4.20;99.90;;;;;;5051751;28;20213;-72
2021/12/22 05:05:51;;;;;;;32.92;29.40;;;-4.20;99.90;;;;;;5051729;28;20491;-72
2021/12/22 05:08:18;;;;;;;37.15;31.63;;;-4.10;99.90;;;;;;5051567;28;20202;-73
2021/12/22 05:10:45;;;;;;;31.88;28.58;;;-4.10;99.90;;;;;;5051668;28;20236;-73
2021/12/22 05:13:11;;;;;;;30.90;27.63;;;-4.10;99.90;;;;;;5051583;28;20256;-72
2021/12/22 05:15:39;;;;;;;38.83;29.73;;;-4.10;99.90;;;;;;5051365;28;20206;-73
2021/12/22 05:20:54;;;;;;;34.30;29.90;;;-4.10;99.90;;;;;;5047698;28;20236;-72
2021/12/22 05:23:21;;;;;;;33.50;29.75;;;-4.20;99.90;;;;;;5051270;28;20227;-73
2021/12/22 05:25:48;;;;;;;32.65;29.15;;;-4.20;99.90;;;;;;5051332;28;20206;-73
2021/12/22 05:28:15;;;;;;;33.15;29.63;;;-4.20;99.90;;;;;;5051310;28;20214;-74
2021/12/22 05:30:44;;;;;;;35.13;30.05;;;-4.20;99.90;;;;;;5051035;28;20211;-74
2021/12/22 05:33:10;;;;;;;31.67;28.27;;;-4.20;99.90;;;;;;5051577;28;20201;-73
2021/12/22 05:35:37;;;;;;;33.42;29.35;;;-4.20;99.90;;;;;;5051356;28;20226;-74
2021/12/22 05:38:05;;;;;;;31.73;28.52;;;-4.20;99.90;;;;;;5051183;28;20201;-74
2021/12/22 05:40:32;;;;;;;32.47;28.75;;;-4.20;99.90;;;;;;5051085;28;20617;-74
2021/12/22 05:42:59;;;;;;;38.97;30.25;;;-4.20;99.90;;;;;;5051446;28;20268;-74
2021/12/22 05:45:27;;;;;;;35.53;30.35;;;-4.20;99.90;;;;;;5051088;28;20718;-73
2021/12/22 05:47:53;;;;;;;35.08;31.27;;;-4.10;99.90;;;;;;5050870;28;20786;-73
2021/12/22 05:50:21;;;;;;;35.95;31.05;;;-4.10;99.90;;;;;;5050682;28;20209;-73
2021/12/22 05:52:48;;;;;;;35.90;31.17;;;-4.20;99.90;;;;;;5051058;28;20204;-73
2021/12/22 05:55:17;;;;;;;38.42;30.40;;;-4.20;99.90;;;;;;5050997;28;20230;-74
2021/12/22 05:57:43;;;;;;;32.80;29.45;;;-4.20;99.90;;;;;;5050979;28;20201;-72
2021/12/22 06:00:11;;;;;;;31.98;28.30;;;-4.20;99.90;;;;;;5050373;28;20210;-72
2021/12/22 06:02:38;;;;;;;35.35;30.50;;;-4.20;99.90;;;;;;5050745;28;20251;-72
2021/12/22 06:05:06;;;;;;;36.17;30.25;;;-4.20;99.90;;;;;;5052895;28;20256;-72
2021/12/22 06:07:33;;;;;;;37.80;31.20;;;-4.20;99.90;;;;;;5055094;28;20631;-72
2021/12/22 06:09:59;;;;;;;34.65;31.05;;;-4.20;99.90;;;;;;5054976;28;20210;-72
2021/12/22 06:12:27;;;;;;;33.33;28.65;;;-4.20;99.90;;;;;;5054894;28;20210;-71
2021/12/22 06:14:54;;;;;;;35.80;31.60;;;-4.20;99.90;;;;;;5054827;28;20225;-71
2021/12/22 06:17:21;;;;;;;35.13;28.73;;;-4.20;99.90;;;;;;5054752;28;20255;-71
2021/12/22 06:19:48;;;;;;;35.65;28.52;;;-4.20;99.90;;;;;;5054850;28;20236;-71
2021/12/22 06:22:15;;;;;;;34.80;31.13;;;-4.20;99.90;;;;;;5054702;28;20213;-72
2021/12/22 06:24:42;;;;;;;32.80;29.27;;;-4.20;99.90;;;;;;5054694;28;20253;-71
2021/12/22 06:27:08;;;;;;;36.55;30.35;;;-4.20;99.90;;;;;;5054731;28;20867;-71
2021/12/22 06:29:36;;;;;;;35.40;30.75;;;-4.20;99.90;;;;;;5054776;28;20201;-72
2021/12/22 06:32:04;;;;;;;37.28;29.27;;;-4.20;99.90;;;;;;5054278;28;20255;-71
2021/12/22 06:34:30;;;;;;;37.65;32.08;;;-4.20;99.90;;;;;;5054464;28;20227;-71
2021/12/22 06:36:57;;;;;;;35.78;31.98;;;-4.30;99.90;;;;;;5054528;28;20260;-72
2021/12/22 06:39:24;;;;;;;30.80;27.45;;;-4.30;99.90;;;;;;5054309;28;20247;-71
2021/12/22 06:41:51;;;;;;;37.13;31.23;;;-4.40;99.90;;;;;;5054379;28;20326;-71
2021/12/22 06:44:18;;;;;;;34.65;29.30;;;-4.40;99.90;;;;;;5054095;28;20659;-71
2021/12/22 06:46:46;;;;;;;32.47;29.33;;;-4.30;99.90;;;;;;5054488;28;20210;-71
2021/12/22 06:49:13;;;;;;;46.22;29.38;;;-4.30;99.90;;;;;;5054206;28;20237;-72
2021/12/22 06:51:40;;;;;;;31.50;28.30;;;-4.40;99.90;;;;;;5054265;28;20225;-71
2021/12/22 06:54:06;;;;;;;32.95;27.38;;;-4.40;99.90;;;;;;5052295;28;20213;-71
2021/12/22 06:56:33;;;;;;;32.33;29.10;;;-4.40;99.90;;;;;;5054217;28;20676;-72
2021/12/22 06:59:01;;;;;;;34.53;29.23;;;-4.50;99.90;;;;;;5054416;28;20208;-72
2021/12/22 07:01:31;;;;;;;30.50;27.55;;;-4.40;99.90;;;;;;5054042;28;20218;-73
2021/12/22 07:03:59;;;;;;;33.63;28.65;;;-4.40;99.90;;;;;;5053713;28;20754;-73
2021/12/22 07:06:26;;;;;;;32.38;27.80;;;-4.40;99.90;;;;;;5054162;28;20218;-73
2021/12/22 07:08:52;;;;;;;37.63;29.63;;;-4.40;99.90;;;;;;5053932;28;20213;-72
2021/12/22 07:11:19;;;;;;;37.80;29.67;;;-4.40;99.90;;;;;;5053912;28;20206;-72
2021/12/22 07:13:46;;;;;;;34.20;30.50;;;-4.40;99.90;;;;;;5053660;28;20209;-71
2021/12/22 07:16:14;;;;;;;34.80;29.10;;;-4.40;99.90;;;;;;5053029;28;20299;-73
2021/12/22 07:18:40;;;;;;;37.75;29.52;;;-4.40;99.90;;;;;;5053820;28;20300;-73
2021/12/22 07:21:10;;;;;;;35.08;30.98;;;-4.40;99.90;;;;;;5053855;28;20248;-73
2021/12/22 07:23:37;;;;;;;33.78;30.38;;;-4.40;99.90;;;;;;5053671;28;20276;-72
2021/12/22 07:26:04;;;;;;;31.73;28.38;;;-4.40;99.90;;;;;;5053934;28;20256;-72
2021/12/22 07:28:31;;;;;;;35.22;28.92;;;-4.40;99.90;;;;;;5053644;28;20630;-72
2021/12/22 07:30:57;;;;;;;28.63;25.73;;;-4.40;99.90;;;;;;5053691;28;20202;-73
2021/12/22 07:33:24;;;;;;;36.38;29.75;;;-4.40;99.90;;;;;;5053549;28;20277;-74
2021/12/22 07:35:58;;;;;;;37.10;30.35;;;-4.30;99.90;;;;;;5053352;28;20696;-74
2021/12/22 07:38:34;;;;;;;33.47;30.17;;;-4.30;99.90;;;;;;5053250;28;20289;-72
2021/12/22 07:41:03;;;;;;;34.83;30.83;;;-4.30;99.90;;;;;;5053439;28;20205;-71
2021/12/22 07:43:30;;;;;;;30.98;27.70;;;-4.30;99.90;;;;;;5053313;28;20245;-73
2021/12/22 07:45:58;;;;;;;35.80;31.80;;;-4.20;99.90;;;;;;5053358;28;20618;-73
2021/12/22 07:48:25;;;;;;;38.53;30.60;;;-3.90;99.90;;;;;;5052978;28;20296;-73
2021/12/22 07:50:52;;;;;;;33.83;29.50;;;-3.70;99.90;;;;;;5053167;28;20203;-73
2021/12/22 07:53:19;;;;;;;33.23;29.60;;;-3.50;99.90;;;;;;5053189;28;20202;-73
2021/12/22 07:55:47;;;;;;;37.42;29.85;;;-3.30;99.90;;;;;;5053214;28;20486;-73
2021/12/22 07:58:14;;;;;;;39.75;31.48;;;-3.10;99.90;;;;;;5053394;28;20259;-73
2021/12/22 08:00:41;;;;;;;34.70;28.63;;;-3.00;99.90;;;;;;5052762;28;20283;-72
2021/12/22 08:03:08;;;;;;;38.20;30.13;;;-2.80;99.90;;;;;;5053114;28;20453;-73
2021/12/22 08:05:35;;;;;;;36.03;29.95;;;-2.70;99.90;;;;;;5053257;28;20459;-73
2021/12/22 08:08:02;;;;;;;39.67;31.27;;;-2.50;99.90;;;;;;5053476;28;20209;-72
2021/12/22 08:10:29;;;;;;;34.87;31.17;;;-2.40;99.90;;;;;;5053316;28;20448;-73
2021/12/22 08:12:57;;;;;;;39.63;29.80;;;-2.30;99.90;;;;;;5053082;28;20448;-74
2021/12/22 08:15:24;;;;;;;33.63;30.13;;;-2.00;99.90;;;;;;5053410;28;20492;-73
2021/12/22 08:17:52;;;;;;;33.10;29.37;;;-1.90;99.90;;;;;;5053278;28;20465;-73
2021/12/22 08:20:20;;;;;;;37.87;31.47;;;-1.70;99.90;;;;;;5052825;28;20466;-73
2021/12/22 08:22:46;;;;;;;34.23;28.90;;;-1.40;99.90;;;;;;5052527;28;20478;-72
2021/12/22 08:25:13;;;;;;;33.33;29.50;;;-1.30;99.90;;;;;;5052421;28;20514;-73
2021/12/22 08:27:40;;;;;;;44.70;27.20;;;-1.20;99.90;;;;;;5051277;28;20970;-71
2021/12/22 08:30:09;;;;;;;34.50;29.83;;;-1.10;99.90;;;;;;5051935;28;20518;-71
2021/12/22 08:32:37;;;;;;;32.53;27.83;;;-1.10;99.90;;;;;;5051965;28;20447;-72
2021/12/22 08:35:06;;;;;;;37.57;29.10;;;-1.00;99.90;;;;;;5052131;28;20480;-73
2021/12/22 08:40:19;;;;;;;30.03;27.13;;;-0.60;99.90;;;;;;5073028;28;20624;-72
2021/12/22 08:42:46;;;;;;;29.83;26.87;;;-0.40;99.90;;;;;;5072020;28;20448;-74
2021/12/22 08:45:15;;;;;;;32.07;27.37;;;0.00;99.90;;;;;;5061191;28;20441;-74
2021/12/22 08:47:42;;;;;;;28.80;25.90;;;0.30;99.90;;;;;;5053568;28;20635;-73
2021/12/22 08:50:10;;;;;;;33.07;27.07;;;0.30;99.90;;;;;;5052288;28;20472;-74
2021/12/22 08:52:37;;;;;;;29.73;26.63;;;0.10;99.90;;;;;;5051554;28;20444;-72
2021/12/22 08:55:05;;;;;;;29.20;26.30;;;0.30;99.90;;;;;;5050697;28;20887;-72
2021/12/22 08:57:34;;;;;;;29.93;27.03;;;0.40;99.90;;;;;;5051790;28;20453;-73
2021/12/22 09:00:01;;;;;;;28.77;25.87;;;0.90;99.90;;;;;;5051283;28;20506;-72
2021/12/22 09:02:29;;;;;;;31.73;25.07;;;1.10;99.90;;;;;;5050212;28;20459;-71
2021/12/22 09:04:56;;;;;;;27.80;25.20;;;1.20;99.90;;;;;;5049834;28;20458;-72
2021/12/22 09:07:22;;;;;;;30.77;27.77;;;1.20;99.90;;;;;;5051028;28;20457;-72
2021/12/22 09:09:49;;;;;;;27.43;24.43;;;1.60;99.90;;;;;;5051108;28;20444;-72
2021/12/22 09:12:16;;;;;;;28.37;24.93;;;1.80;99.90;;;;;;5050963;28;20463;-74
2021/12/22 09:14:42;;;;;;;31.87;26.37;;;1.70;99.90;;;;;;5050773;28;20891;-74
2021/12/22 09:17:09;;;;;;;27.27;24.47;;;2.00;99.90;;;;;;5050580;28;20446;-72
2021/12/22 09:19:37;;;;;;;27.90;25.20;;;2.50;99.90;;;;;;5050890;28;20455;-73
2021/12/22 09:22:04;;;;;;;28.80;25.70;;;2.60;99.90;;;;;;5050939;28;20444;-72
2021/12/22 09:24:31;;;;;;;29.00;25.80;;;2.60;99.90;;;;;;5050921;28;20448;-72
2021/12/22 09:26:57;;;;;;;29.40;26.67;;;2.60;99.90;;;;;;5050729;28;20448;-72
2021/12/22 09:29:26;;;;;;;28.53;25.73;;;2.80;99.90;;;;;;5050507;28;20444;-72
2021/12/22 09:31:53;;;;;;;29.20;25.20;;;2.90;99.90;;;;;;5050438;28;20456;-73
2021/12/22 09:34:20;;;;;;;26.07;23.97;;;2.80;99.90;;;;;;5050877;28;20455;-73
2021/12/22 09:36:48;;;;;;;28.10;25.40;;;3.00;99.90;;;;;;5050660;28;20484;-72
2021/12/22 09:39:14;;;;;;;29.20;26.27;;;3.60;99.90;;;;;;5050498;28;20489;-73
2021/12/22 09:41:41;;;;;;;28.50;25.50;;;4.20;99.90;;;;;;5050166;28;20880;-73
2021/12/22 09:44:08;;;;;;;27.20;24.80;;;4.20;99.90;;;;;;5050294;28;20457;-74
2021/12/22 09:46:38;;;;;;;28.90;26.13;;;4.00;99.90;;;;;;5050706;28;20445;-72
2021/12/22 09:49:19;;;;;;;29.27;26.27;;;3.70;99.90;;;;;;5050187;28;20480;-73
2021/12/22 09:54:33;;;;;;;29.53;26.73;;;3.60;99.90;;;;;;5050435;28;20439;-73
2021/12/22 09:57:00;;;;;;;30.47;27.00;;;3.40;99.90;;;;;;5050532;28;20489;-73
2021/12/22 09:59:27;;;;;;;30.17;27.20;;;3.60;99.90;;;;;;5050075;28;20451;-73
2021/12/22 10:01:54;;;;;;;27.73;25.23;;;3.50;99.90;;;;;;5050287;28;20646;-74
2021/12/22 10:04:21;;;;;;;28.07;25.43;;;3.80;99.90;;;;;;5050332;28;20853;-73
2021/12/22 10:06:50;;;;;;;27.13;24.77;;;3.90;99.90;;;;;;5050341;28;20509;-73
2021/12/22 10:09:23;;;;;;;28.60;26.00;;;3.90;99.90;;;;;;5049998;28;20869;-71
2021/12/22 10:11:49;;;;;;;27.30;24.80;;;3.90;99.90;;;;;;5050600;28;20439;-73
2021/12/22 10:14:21;;;;;;;28.30;25.83;;;4.10;99.90;;;;;;5049744;28;20506;-72
2021/12/22 10:16:51;;;;;;;29.80;27.07;;;4.00;99.90;;;;;;5049968;28;21121;-73
2021/12/22 10:19:18;;;;;;;28.10;25.60;;;4.10;99.90;;;;;;5049965;28;20511;-73
2021/12/22 10:21:55;;;;;;;27.83;25.10;;;4.20;99.90;;;;;;5049762;28;20452;-73
2021/12/22 10:24:35;;;;;;;27.10;24.30;;;4.10;99.90;;;;;;5049865;28;20475;-72
2021/12/22 10:27:03;;;;;;;27.43;24.93;;;4.40;99.90;;;;;;5050052;28;20432;-72
2021/12/22 10:29:32;;;;;;;27.67;24.73;;;4.50;99.90;;;;;;5049550;28;20458;-73
2021/12/22 10:32:07;;;;;;;28.93;26.37;;;4.80;99.70;;;;;;5050131;28;20463;-72
2021/12/22 10:34:34;;;;;;;29.50;26.90;;;5.00;99.50;;;;;;5049898;28;20450;-73
2021/12/22 10:37:02;;;;;;;29.67;26.57;;;5.50;98.60;;;;;;5049664;28;20556;-72
2021/12/22 10:39:32;;;;;;;29.60;26.63;;;5.60;96.90;;;;;;5050023;28;20612;-73
2021/12/22 10:42:04;;;;;;;29.30;26.57;;;5.30;97.00;;;;;;5049614;28;20456;-73
2021/12/22 10:44:35;;;;;;;28.33;25.53;;;5.30;98.40;;;;;;5050090;28;20455;-74
2021/12/22 10:47:18;;;;;;;26.50;24.20;;;5.50;97.40;;;;;;5049888;28;20471;-73
2021/12/22 10:49:57;;;;;;;27.50;25.13;;;5.70;96.20;;;;;;5049767;28;20458;-73
2021/12/22 10:52:26;;;;;;;27.80;24.87;;;5.60;96.60;;;;;;5052343;28;20484;-74
2021/12/22 10:55:08;;;;;;;25.87;23.40;;;5.40;96.90;;;;;;5053967;28;20462;-73
2021/12/22 10:57:37;;;;;;;27.07;24.70;;;5.80;96.00;;;;;;5053571;28;20418;-73
2021/12/22 11:00:15;;;;;;;29.10;26.53;;;5.50;95.90;;;;;;5053806;28;20561;-72
2021/12/22 11:02:49;;;;;;;26.80;24.37;;;5.70;95.70;;;;;;5053665;28;20538;-72
2021/12/22 11:05:23;;;;;;;27.63;25.03;;;5.30;96.10;;;;;;5053481;28;20486;-73
2021/12/22 11:07:51;;;;;;;26.97;24.43;;;5.30;97.10;;;;;;5053580;28;20531;-74
2021/12/22 11:10:25;;;;;;;26.57;24.40;;;5.90;96.30;;;;;;5053125;28;20501;-72
2021/12/22 11:13:01;;;;;;;25.37;23.13;;;5.80;94.90;;;;;;5053261;28;20547;-73
2021/12/22 11:15:28;;;;;;;26.73;24.23;;;5.90;95.10;;;;;;5053116;28;20483;-72
2021/12/22 11:17:55;;;;;;;26.33;23.90;;;5.80;94.60;;;;;;5053327;28;20860;-73
2021/12/22 11:20:24;;;;;;;26.53;24.13;;;5.50;95.50;;;;;;5052953;28;20502;-73
2021/12/22 11:22:57;;;;;;;26.80;24.50;;;5.20;95.90;;;;;;5052848;28;20474;-72
2021/12/22 11:25:24;;;;;;;25.37;23.17;;;5.60;95.50;;;;;;5053194;28;20439;-73
2021/12/22 11:27:52;;;;;;;26.90;24.40;;;6.00;94.40;;;;;;5052918;28;20456;-73
2021/12/22 11:30:19;;;;;;;25.77;23.50;;;5.70;94.60;;;;;;5053029;28;20484;-72
2021/12/22 11:32:47;;;;;;;27.83;25.30;;;5.10;95.40;;;;;;5052692;28;20458;-73
2021/12/22 11:35:15;;;;;;;26.60;24.30;;;4.90;96.20;;;;;;5052860;28;20798;-73
2021/12/22 11:37:42;;;;;;;26.10;23.90;;;5.10;96.30;;;;;;5052617;28;20488;-72
2021/12/22 11:40:12;;;;;;;27.07;24.47;;;5.20;96.30;;;;;;5052648;28;20456;-73
2021/12/22 11:42:40;;;;;;;26.60;24.30;;;5.60;96.30;;;;;;5052780;28;20465;-73
2021/12/22 11:45:10;;;;;;;27.00;24.57;;;6.00;95.60;;;;;;5052470;28;20452;-73
2021/12/22 11:47:38;;;;;;;26.27;23.70;;;6.10;95.00;;;;;;5052296;28;20515;-73
2021/12/22 11:50:07;;;;;;;25.80;23.50;;;6.50;94.80;;;;;;5052601;28;20853;-74
2021/12/22 11:52:37;;;;;;;26.73;24.33;;;7.10;93.20;;;;;;5052509;28;20543;-73
2021/12/22 11:55:17;;;;;;;23.37;21.47;;;7.00;92.60;;;;;;5052362;28;20921;-73
2021/12/22 11:57:47;;;;;;;26.47;24.30;;;6.90;92.50;;;;;;5052386;28;20444;-73
2021/12/22 12:00:25;;;;;;;25.87;23.60;;;7.10;92.80;;;;;;5052642;28;20521;-73
2021/12/22 12:02:52;;;;;;;27.03;24.53;;;7.80;91.80;;;;;;5052200;28;20463;-74
2021/12/22 12:05:21;;;;;;;24.80;22.80;;;7.40;90.80;;;;;;5052068;28;20448;-74
2021/12/22 12:07:52;;;;;;;28.33;25.83;;;6.60;92.00;;;;;;5052212;28;20447;-74
2021/12/22 12:10:38;;;;;;;27.70;25.07;;;6.20;92.70;;;;;;5052087;28;20956;-73
2021/12/22 12:13:09;;;;;;;26.90;24.50;;;6.10;94.00;;;;;;5052020;28;20473;-73
2021/12/22 12:22:09;;;;;;;25.27;22.90;;;8.10;91.10;;;;;;5051968;28;20459;-74
2021/12/22 12:24:46;;;;;;;26.87;24.30;;;9.00;89.50;;;;;;5051914;28;20464;-73
2021/12/22 12:27:47;;;;;;;28.27;25.40;;;9.80;85.00;;;;;;5051970;28;20824;-74
2021/12/22 12:30:44;;;;;;;26.50;24.00;;;9.20;82.80;;;;;;5051400;28;20474;-73
2021/12/22 12:33:25;;;;;;;30.07;25.30;;;8.00;85.70;;;;;;5047018;28;20462;-75
2021/12/22 12:35:55;;;;;;;26.87;24.67;;;8.10;86.10;;;;;;5051547;28;20479;-75
2021/12/22 12:38:24;;;;;;;24.73;22.63;;;7.80;87.00;;;;;;5051785;28;20851;-74
2021/12/22 12:41:12;;;;;;;27.10;24.60;;;7.30;87.10;;;;;;5051564;28;20510;-74
2021/12/22 12:43:53;;;;;;;24.80;22.20;;;5.80;90.70;;;;;;5051260;28;20542;-73
2021/12/22 12:46:37;;;;;;;22.90;20.90;;;5.00;92.70;;;;;;5051598;28;20454;-74
2021/12/22 12:49:38;;;;;;;24.83;22.30;;;4.00;95.10;;;;;;5051308;28;20480;-74
2021/12/22 12:52:10;;;;;;;26.30;23.70;;;3.50;96.80;;;;;;5051332;28;20459;-73
2021/12/22 12:54:40;;;;;;;22.53;20.33;;;3.10;98.30;;;;;;5051184;28;20742;-73
2021/12/22 12:57:27;;;;;;;29.83;21.93;;;2.90;99.40;;;;;;5051319;28;20491;-73